createdAt,value
2022-10-02T00:01:48.107Z,18.40
2022-10-02T00:04:20.647Z,18.40
2022-10-02T00:06:50.024Z,18.40
2022-10-02T00:09:24.675Z,18.30
2022-10-02T00:11:58.253Z,18.40
2022-10-02T00:14:29.069Z,18.40
2022-10-02T00:17:00.004Z,18.40
2022-10-02T00:19:27.706Z,18.40
2022-10-02T00:22:12.479Z,18.40
2022-10-02T00:24:45.411Z,18.40
2022-10-02T00:27:37.278Z,18.40
2022-10-02T00:30:10.303Z,18.40
2022-10-02T00:32:45.980Z,18.40
2022-10-02T00:35:35.309Z,18.40
2022-10-02T00:38:15.166Z,18.40
2022-10-02T00:41:06.592Z,18.40
2022-10-02T00:43:43.750Z,18.50
2022-10-02T00:46:40.098Z,18.50
2022-10-02T00:49:22.968Z,18.50
2022-10-02T00:52:00.580Z,18.50
2022-10-02T00:54:57.068Z,18.40
2022-10-02T00:57:35.739Z,18.40
2022-10-02T01:00:10.247Z,18.40
2022-10-02T01:02:48.050Z,18.40
2022-10-02T01:05:16.369Z,18.40
2022-10-02T01:07:49.060Z,18.40
2022-10-02T01:10:17.299Z,18.30
2022-10-02T01:12:45.931Z,18.30
2022-10-02T01:15:18.636Z,18.40
2022-10-02T01:17:48.285Z,18.40
2022-10-02T01:20:17.886Z,18.40
2022-10-02T01:22:52.920Z,18.40
2022-10-02T01:25:21.945Z,18.40
2022-10-02T01:27:50.552Z,18.30
2022-10-02T01:30:19.686Z,18.30
2022-10-02T01:32:50.431Z,18.30
2022-10-02T01:35:20.460Z,18.30
2022-10-02T01:37:50.088Z,18.30
2022-10-02T01:40:28.076Z,18.30
2022-10-02T01:42:59.544Z,18.30
2022-10-02T01:45:38.674Z,18.30
2022-10-02T01:48:17.723Z,18.30
2022-10-02T01:50:56.492Z,18.40
2022-10-02T01:53:30.975Z,18.40
2022-10-02T01:56:09.755Z,18.40
2022-10-02T01:58:49.996Z,18.40
2022-10-02T02:01:29.064Z,18.40
2022-10-02T02:04:02.553Z,18.40
2022-10-02T02:06:50.065Z,18.40
2022-10-02T02:09:21.528Z,18.40
2022-10-02T02:11:57.717Z,18.40
2022-10-02T02:14:29.664Z,18.40
2022-10-02T02:17:06.186Z,18.40
2022-10-02T02:19:35.894Z,18.40
2022-10-02T02:22:08.536Z,18.40
2022-10-02T02:24:40.518Z,18.40
2022-10-02T02:27:14.418Z,18.40
2022-10-02T02:29:44.490Z,18.40
2022-10-02T02:32:16.823Z,18.40
2022-10-02T02:34:55.180Z,18.50
2022-10-02T02:37:27.619Z,18.40
2022-10-02T02:39:59.400Z,18.40
2022-10-02T02:42:32.802Z,18.40
2022-10-02T02:45:05.219Z,18.40
2022-10-02T02:47:40.349Z,18.40
2022-10-02T02:50:12.622Z,18.40
2022-10-02T02:52:44.927Z,18.30
2022-10-02T02:55:15.992Z,18.30
2022-10-02T02:57:52.618Z,18.30
2022-10-02T03:00:20.607Z,18.30
2022-10-02T03:02:50.639Z,18.30
2022-10-02T03:05:19.396Z,18.30
2022-10-02T03:07:52.235Z,18.40
2022-10-02T03:10:28.130Z,18.40
2022-10-02T03:13:07.745Z,18.30
2022-10-02T03:15:45.177Z,18.30
2022-10-02T03:18:35.541Z,18.30
2022-10-02T03:21:11.781Z,18.30
2022-10-02T03:23:51.370Z,18.40
2022-10-02T03:26:24.567Z,18.40
2022-10-02T03:28:57.477Z,18.40
2022-10-02T03:31:28.770Z,18.40
2022-10-02T03:33:59.265Z,18.40
2022-10-02T03:36:27.461Z,18.40
2022-10-02T03:39:23.250Z,18.40
2022-10-02T03:41:46.835Z,18.40
2022-10-02T03:44:15.999Z,18.40
2022-10-02T03:46:43.745Z,18.40
2022-10-02T03:49:11.356Z,18.30
2022-10-02T03:51:38.995Z,18.30
2022-10-02T03:54:16.215Z,18.30
2022-10-02T03:56:49.732Z,18.30
2022-10-02T03:59:30.558Z,18.30
2022-10-02T04:02:01.084Z,18.30
2022-10-02T04:04:37.312Z,18.30
2022-10-02T04:07:07.486Z,18.30
2022-10-02T04:09:41.455Z,18.30
2022-10-02T04:12:13.740Z,18.30
2022-10-02T04:14:49.848Z,18.40
2022-10-02T04:17:21.395Z,18.30
2022-10-02T04:19:53.251Z,18.30
2022-10-02T04:22:27.695Z,18.30
2022-10-02T04:25:00.480Z,18.30
2022-10-02T04:27:35.690Z,18.30
2022-10-02T04:30:09.586Z,18.30
2022-10-02T04:32:37.841Z,18.40
2022-10-02T04:35:12.901Z,18.40
2022-10-02T04:38:00.052Z,18.40
2022-10-02T04:40:50.559Z,18.40
2022-10-02T04:43:37.194Z,18.40
2022-10-02T04:46:24.013Z,18.40
2022-10-02T04:49:37.031Z,18.40
2022-10-02T04:52:24.422Z,18.40
2022-10-02T04:55:14.971Z,18.40
2022-10-02T04:57:56.941Z,18.40
2022-10-02T05:00:26.732Z,18.40
2022-10-02T05:03:13.641Z,18.50
2022-10-02T05:06:09.450Z,18.40
2022-10-02T05:08:50.371Z,18.40
2022-10-02T05:11:34.271Z,18.50
2022-10-02T05:14:15.299Z,18.50
2022-10-02T05:17:07.772Z,18.50
2022-10-02T05:19:58.911Z,18.50
2022-10-02T05:22:50.342Z,18.50
2022-10-02T05:25:32.601Z,18.50
2022-10-02T05:28:14.924Z,18.60
2022-10-02T05:30:48.570Z,18.60
2022-10-02T05:33:53.001Z,18.60
2022-10-02T05:36:54.991Z,18.60
2022-10-02T05:39:28.220Z,18.60
2022-10-02T05:42:05.920Z,18.60
2022-10-02T05:44:38.750Z,18.60
2022-10-02T05:47:13.380Z,18.70
2022-10-02T05:49:46.991Z,18.60
2022-10-02T05:52:20.951Z,18.70
2022-10-02T05:54:53.622Z,18.70
2022-10-02T05:57:27.283Z,18.70
2022-10-02T06:00:06.030Z,18.70
2022-10-02T06:02:48.613Z,18.80
2022-10-02T06:05:22.430Z,18.80
2022-10-02T06:07:54.961Z,18.80
2022-10-02T06:10:26.601Z,18.80
2022-10-02T06:12:58.970Z,18.70
2022-10-02T06:15:32.291Z,18.70
2022-10-02T06:18:04.990Z,18.80
2022-10-02T06:20:36.630Z,18.80
2022-10-02T06:23:12.441Z,18.90
2022-10-02T06:25:46.371Z,18.90
2022-10-02T06:28:20.125Z,19.00
2022-10-02T06:30:54.989Z,19.00
2022-10-02T06:33:25.270Z,19.10
2022-10-02T06:36:09.002Z,19.10
2022-10-02T06:38:52.661Z,19.10
2022-10-02T06:41:30.109Z,19.20
2022-10-02T06:44:18.853Z,19.20
2022-10-02T06:47:00.161Z,19.20
2022-10-02T06:49:39.900Z,19.20
2022-10-02T06:52:23.201Z,19.30
2022-10-02T06:55:07.705Z,19.30
2022-10-02T06:57:51.270Z,19.30
2022-10-02T07:00:21.602Z,19.40
2022-10-02T07:03:24.272Z,19.30
2022-10-02T07:06:16.461Z,19.40
2022-10-02T07:09:04.521Z,19.50
2022-10-02T07:11:43.080Z,19.50
2022-10-02T07:14:28.219Z,19.60
2022-10-02T07:17:26.910Z,19.60
2022-10-02T07:20:23.344Z,19.60
2022-10-02T07:23:07.788Z,19.60
2022-10-02T07:25:50.741Z,19.60
2022-10-02T07:28:28.205Z,19.60
2022-10-02T07:31:01.754Z,19.60
2022-10-02T07:33:44.203Z,19.60
2022-10-02T07:36:21.024Z,19.70
2022-10-02T07:39:10.032Z,19.70
2022-10-02T07:42:04.566Z,19.80
2022-10-02T07:44:56.065Z,19.90
2022-10-02T07:47:50.705Z,19.90
2022-10-02T07:50:27.653Z,20.00
2022-10-02T07:53:05.243Z,20.10
2022-10-02T07:55:37.564Z,20.10
2022-10-02T07:58:10.325Z,20.20
2022-10-02T08:00:43.814Z,20.30
2022-10-02T08:03:16.169Z,20.30
2022-10-02T08:05:48.354Z,20.30
2022-10-02T08:08:23.996Z,20.30
2022-10-02T08:10:56.966Z,20.30
2022-10-02T08:13:31.685Z,20.30
2022-10-02T08:16:04.591Z,20.30
2022-10-02T08:18:37.565Z,20.40
2022-10-02T08:21:12.417Z,20.40
2022-10-02T08:23:44.464Z,20.40
2022-10-02T08:26:18.495Z,20.50
2022-10-02T08:28:53.197Z,20.50
2022-10-02T08:31:23.941Z,20.50
2022-10-02T08:33:52.201Z,20.60
2022-10-02T08:36:38.662Z,20.60
2022-10-02T08:39:26.368Z,20.70
2022-10-02T08:42:25.347Z,20.80
2022-10-02T08:45:34.334Z,20.80
2022-10-02T08:48:34.827Z,20.90
2022-10-02T08:51:27.787Z,21.00
2022-10-02T08:54:24.038Z,21.10
2022-10-02T08:57:17.257Z,21.10
2022-10-02T09:00:14.648Z,21.20
2022-10-02T09:03:19.687Z,21.40
2022-10-02T09:06:17.087Z,21.50
2022-10-02T09:09:16.008Z,21.60
2022-10-02T09:12:21.768Z,21.70
2022-10-02T09:14:58.066Z,21.80
2022-10-02T09:18:02.898Z,21.90
2022-10-02T09:21:04.425Z,22.10
2022-10-02T09:24:19.778Z,22.10
2022-10-02T09:27:51.912Z,22.20
2022-10-02T09:30:48.140Z,22.30
2022-10-02T09:33:50.658Z,22.40
2022-10-02T09:36:58.086Z,22.40
2022-10-02T09:40:01.658Z,22.40
2022-10-02T09:43:20.608Z,22.30
2022-10-02T09:46:27.080Z,22.30
2022-10-02T09:49:25.707Z,22.30
2022-10-02T09:52:32.348Z,22.30
2022-10-02T09:55:36.938Z,22.30
2022-10-02T09:58:37.408Z,22.10
2022-10-02T10:01:33.375Z,22.30
2022-10-02T10:05:04.104Z,22.40
2022-10-02T10:08:05.497Z,22.60
2022-10-02T10:11:10.857Z,22.70
2022-10-02T10:14:13.305Z,22.70
2022-10-02T10:17:15.310Z,22.60
2022-10-02T10:20:16.805Z,22.60
2022-10-02T10:23:21.455Z,22.60
2022-10-02T10:26:19.150Z,22.70
2022-10-02T10:29:40.042Z,22.70
2022-10-02T10:32:43.217Z,22.70
2022-10-02T10:35:50.107Z,22.60
2022-10-02T10:38:40.126Z,22.60
2022-10-02T10:41:36.547Z,22.50
2022-10-02T10:44:33.641Z,22.50
2022-10-02T10:47:34.321Z,22.50
2022-10-02T10:50:46.343Z,22.50
2022-10-02T10:53:40.041Z,22.50
2022-10-02T10:56:37.738Z,22.60
2022-10-02T10:59:42.516Z,22.70
2022-10-02T11:02:36.298Z,22.70
2022-10-02T11:05:20.741Z,22.80
2022-10-02T11:08:06.102Z,22.70
2022-10-02T11:10:52.718Z,22.70
2022-10-02T11:13:43.854Z,22.60
2022-10-02T11:16:44.323Z,22.60
2022-10-02T11:19:32.948Z,22.50
2022-10-02T11:22:26.793Z,22.50
2022-10-02T11:25:16.442Z,22.40
2022-10-02T11:28:11.038Z,22.30
2022-10-02T11:30:54.082Z,22.20
2022-10-02T11:33:49.265Z,22.20
2022-10-02T11:36:43.432Z,22.00
2022-10-02T11:39:48.764Z,22.00
2022-10-02T11:42:38.225Z,22.00
2022-10-02T11:45:33.388Z,21.90
2022-10-02T11:48:18.972Z,21.80
2022-10-02T11:51:28.730Z,21.80
2022-10-02T11:54:14.163Z,21.70
2022-10-02T11:57:02.125Z,21.70
2022-10-02T11:59:38.592Z,21.70
2022-10-02T12:02:16.214Z,21.80
2022-10-02T12:04:57.750Z,21.80
2022-10-02T12:07:40.690Z,21.90
2022-10-02T12:10:23.640Z,22.00
2022-10-02T12:13:04.090Z,22.00
2022-10-02T12:15:42.143Z,22.20
2022-10-02T12:18:26.255Z,22.30
2022-10-02T12:21:29.810Z,22.50
2022-10-02T12:24:23.700Z,22.60
2022-10-02T12:27:04.291Z,22.60
2022-10-02T12:30:00.728Z,22.70
2022-10-02T12:32:46.238Z,22.70
2022-10-02T12:35:38.817Z,22.80
2022-10-02T12:38:20.348Z,22.70
2022-10-02T12:40:57.499Z,22.70
2022-10-02T12:44:05.737Z,22.80
2022-10-02T12:46:57.610Z,22.80
2022-10-02T12:49:41.735Z,22.70
2022-10-02T12:52:57.591Z,22.60
2022-10-02T12:55:57.010Z,22.40
2022-10-02T12:58:32.607Z,22.30
2022-10-02T13:01:33.431Z,22.30
2022-10-02T13:04:29.460Z,22.30
2022-10-02T13:07:29.761Z,22.10
2022-10-02T13:10:04.030Z,22.10
2022-10-02T13:13:02.049Z,22.10
2022-10-02T13:15:43.308Z,22.00
2022-10-02T13:18:26.497Z,22.10
2022-10-02T13:21:04.391Z,22.10
2022-10-02T13:23:43.648Z,22.10
2022-10-02T13:26:25.477Z,22.10
2022-10-02T13:29:24.864Z,22.30
2022-10-02T13:32:09.894Z,22.70
2022-10-02T13:34:58.965Z,23.00
2022-10-02T13:37:41.153Z,23.50
2022-10-02T13:40:28.924Z,24.00
2022-10-02T13:43:35.095Z,24.40
2022-10-02T13:46:15.813Z,24.20
2022-10-02T13:48:57.215Z,23.90
2022-10-02T13:51:32.004Z,24.00
2022-10-02T13:54:20.815Z,23.90
2022-10-02T13:56:56.645Z,24.10
2022-10-02T13:59:49.635Z,24.10
2022-10-02T14:02:33.663Z,24.00
2022-10-02T14:05:06.353Z,23.70
2022-10-02T14:07:46.949Z,23.50
2022-10-02T14:10:28.623Z,23.40
2022-10-02T14:13:11.052Z,23.60
2022-10-02T14:15:51.414Z,23.70
2022-10-02T14:18:45.883Z,23.70
2022-10-02T14:21:24.155Z,24.10
2022-10-02T14:24:02.613Z,23.90
2022-10-02T14:26:49.288Z,23.80
2022-10-02T14:29:47.469Z,23.90
2022-10-02T14:32:37.538Z,23.50
2022-10-02T14:35:34.671Z,23.20
2022-10-02T14:38:31.826Z,23.10
2022-10-02T14:41:09.929Z,23.10
2022-10-02T14:44:23.544Z,23.10
2022-10-02T14:47:27.259Z,23.10
2022-10-02T14:50:20.152Z,23.10
2022-10-02T14:53:14.416Z,23.10
2022-10-02T14:56:21.800Z,23.00
2022-10-02T14:59:10.058Z,22.80
2022-10-02T15:01:45.479Z,22.60
2022-10-02T15:04:30.578Z,22.50
2022-10-02T15:07:07.849Z,22.30
2022-10-02T15:09:49.789Z,22.30
2022-10-02T15:12:21.690Z,22.30
2022-10-02T15:15:05.110Z,22.30
2022-10-02T15:17:55.628Z,22.30
2022-10-02T15:20:33.581Z,22.30
2022-10-02T15:23:03.550Z,22.30
2022-10-02T15:25:55.628Z,22.30
2022-10-02T15:28:36.795Z,22.30
2022-10-02T15:31:19.350Z,22.80
2022-10-02T15:34:02.638Z,22.70
2022-10-02T15:37:04.831Z,22.60
2022-10-02T15:40:17.416Z,22.60
2022-10-02T15:42:54.100Z,22.60
2022-10-02T15:45:38.419Z,22.50
2022-10-02T15:48:22.360Z,22.50
2022-10-02T15:51:00.591Z,22.50
2022-10-02T15:53:41.466Z,22.50
2022-10-02T15:56:53.671Z,22.50
2022-10-02T15:59:37.680Z,22.40
2022-10-02T16:02:31.346Z,22.30
2022-10-02T16:05:13.946Z,22.20
2022-10-02T16:07:59.354Z,22.10
2022-10-02T16:10:37.008Z,22.00
2022-10-02T16:13:32.949Z,22.00
2022-10-02T16:16:16.194Z,22.00
2022-10-02T16:18:59.146Z,22.10
2022-10-02T16:21:39.377Z,22.20
2022-10-02T16:24:36.328Z,22.30
2022-10-02T16:27:46.665Z,22.30
2022-10-02T16:30:16.439Z,22.30
2022-10-02T16:33:05.109Z,22.30
2022-10-02T16:36:10.907Z,22.20
2022-10-02T16:38:49.677Z,22.20
2022-10-02T16:41:38.550Z,22.20
2022-10-02T16:44:24.576Z,22.00
2022-10-02T16:46:56.260Z,22.00
2022-10-02T16:49:32.422Z,21.90
2022-10-02T16:52:06.655Z,21.90
2022-10-02T16:54:47.009Z,21.80
2022-10-02T16:57:27.598Z,21.80
2022-10-02T17:00:15.213Z,21.80
2022-10-02T17:02:49.186Z,21.70
2022-10-02T17:05:26.052Z,21.70
2022-10-02T17:08:00.458Z,21.60
2022-10-02T17:11:05.932Z,21.60
2022-10-02T17:14:03.666Z,21.60
2022-10-02T17:20:27.520Z,21.50
2022-10-02T17:23:03.305Z,21.60
2022-10-02T17:25:38.336Z,21.60
2022-10-02T17:28:18.508Z,21.50
2022-10-02T17:31:07.183Z,21.50
2022-10-02T17:33:46.727Z,21.50
2022-10-02T17:36:21.966Z,21.50
2022-10-02T17:39:08.777Z,21.50
2022-10-02T17:42:22.287Z,21.40
2022-10-02T17:44:58.446Z,21.40
2022-10-02T17:47:55.616Z,21.40
2022-10-02T17:50:45.077Z,21.40
2022-10-02T17:53:51.553Z,21.30
2022-10-02T17:56:36.528Z,21.30
2022-10-02T17:59:38.187Z,21.30
2022-10-02T18:02:19.137Z,21.30
2022-10-02T18:04:59.769Z,21.40
2022-10-02T18:07:46.250Z,21.40
2022-10-02T18:10:44.044Z,21.30
2022-10-02T18:13:26.190Z,21.30
2022-10-02T18:16:24.159Z,21.30
2022-10-02T18:19:14.561Z,21.30
2022-10-02T18:21:51.118Z,21.30
2022-10-02T18:24:25.686Z,21.20
2022-10-02T18:27:14.661Z,21.20
2022-10-02T18:30:03.886Z,21.20
2022-10-02T18:33:14.375Z,21.20
2022-10-02T18:35:52.418Z,21.10
2022-10-02T18:38:29.555Z,20.90
2022-10-02T18:41:09.317Z,20.90
2022-10-02T18:43:55.370Z,20.80
2022-10-02T18:46:37.518Z,20.80
2022-10-02T18:49:32.782Z,20.70
2022-10-02T18:52:22.156Z,20.60
2022-10-02T18:55:03.411Z,20.70
2022-10-02T18:57:46.264Z,20.60
2022-10-02T19:00:18.762Z,20.40
2022-10-02T19:03:03.633Z,20.30
2022-10-02T19:05:35.652Z,20.30
2022-10-02T19:08:21.143Z,20.30
2022-10-02T19:10:49.322Z,20.30
2022-10-02T19:13:27.542Z,20.20
2022-10-02T19:15:58.868Z,20.20
2022-10-02T19:18:28.845Z,20.20
2022-10-02T19:21:03.481Z,20.20
2022-10-02T19:23:36.004Z,20.30
2022-10-02T19:26:14.903Z,20.30
2022-10-02T19:28:49.648Z,20.30
2022-10-02T19:31:23.272Z,20.30
2022-10-02T19:33:54.719Z,20.30
2022-10-02T19:36:26.548Z,20.30
2022-10-02T19:38:59.400Z,20.30
2022-10-02T19:41:42.239Z,20.30
2022-10-02T19:48:20.502Z,20.40
2022-10-02T19:50:53.972Z,20.40
2022-10-02T19:53:26.266Z,20.40
2022-10-02T19:55:57.505Z,20.40
2022-10-02T19:58:30.002Z,20.40
2022-10-02T20:00:59.295Z,20.30
2022-10-02T20:03:30.502Z,20.30
2022-10-02T20:06:04.590Z,20.30
2022-10-02T20:08:38.780Z,20.30
2022-10-02T20:11:14.834Z,20.30
2022-10-02T20:13:48.835Z,20.30
2022-10-02T20:16:38.850Z,20.30
2022-10-02T20:19:15.885Z,20.30
2022-10-02T20:21:48.421Z,20.30
2022-10-02T20:24:20.317Z,20.30
2022-10-02T20:26:50.635Z,20.30
2022-10-02T20:29:54.681Z,20.30
2022-10-02T20:32:30.456Z,20.30
2022-10-02T20:35:05.166Z,20.30
2022-10-02T20:37:37.212Z,20.30
2022-10-02T20:40:13.634Z,20.30
2022-10-02T20:42:48.855Z,20.30
2022-10-02T20:45:17.370Z,20.40
2022-10-02T20:48:26.037Z,20.40
2022-10-02T20:51:06.844Z,20.40
2022-10-02T20:54:07.380Z,20.40
2022-10-02T20:57:19.919Z,20.40
2022-10-02T21:00:15.396Z,20.40
2022-10-02T21:03:17.709Z,20.40
2022-10-02T21:06:22.773Z,20.50
2022-10-02T21:09:33.030Z,20.40
2022-10-02T21:12:27.254Z,20.40
2022-10-02T21:15:34.855Z,20.40
2022-10-02T21:18:38.099Z,20.40
2022-10-02T21:21:29.833Z,20.40
2022-10-02T21:24:28.238Z,20.30
2022-10-02T21:27:17.011Z,20.30
2022-10-02T21:30:02.703Z,20.20
2022-10-02T21:32:57.528Z,20.30
2022-10-02T21:35:43.469Z,20.30
2022-10-02T21:38:57.865Z,20.30
2022-10-02T21:41:58.214Z,20.30
2022-10-02T21:45:01.764Z,20.20
2022-10-02T21:48:10.396Z,20.20
2022-10-02T21:51:10.805Z,20.30
2022-10-02T21:54:20.985Z,20.20
2022-10-02T21:57:27.833Z,20.20
2022-10-02T22:00:43.272Z,20.20
2022-10-02T22:03:49.373Z,20.10
2022-10-02T22:06:30.324Z,20.20
2022-10-02T22:09:24.051Z,20.20
2022-10-02T22:12:06.251Z,20.20
2022-10-02T22:14:39.752Z,20.20
2022-10-02T22:17:19.668Z,20.10
2022-10-02T22:20:10.064Z,20.10
2022-10-02T22:22:51.924Z,20.10
2022-10-02T22:25:36.180Z,20.10
2022-10-02T22:28:17.165Z,20.10
2022-10-02T22:31:08.507Z,20.10
2022-10-02T22:33:54.347Z,20.10
2022-10-02T22:36:41.992Z,20.10
2022-10-02T22:39:21.171Z,20.10
2022-10-02T22:42:09.758Z,20.00
2022-10-02T22:44:46.622Z,20.10
2022-10-02T22:47:26.681Z,20.00
2022-10-02T22:49:58.596Z,20.00
2022-10-02T22:52:32.742Z,20.10
2022-10-02T22:55:08.248Z,20.00
2022-10-02T22:57:41.995Z,20.00
2022-10-02T23:00:17.776Z,20.00
2022-10-02T23:02:52.914Z,20.00
2022-10-02T23:05:27.723Z,20.00
2022-10-02T23:08:03.144Z,20.00
2022-10-02T23:10:43.143Z,20.00
2022-10-02T23:13:16.733Z,20.00
2022-10-02T23:15:54.934Z,20.10
2022-10-02T23:18:36.684Z,20.10
2022-10-02T23:21:18.393Z,20.10
2022-10-02T23:23:53.685Z,20.00
2022-10-02T23:26:30.755Z,20.10
2022-10-02T23:29:19.456Z,20.00
2022-10-02T23:31:56.956Z,20.00
2022-10-02T23:34:37.606Z,20.00
2022-10-02T23:37:14.176Z,20.00
2022-10-02T23:39:50.846Z,20.00
2022-10-02T23:42:26.906Z,20.00
2022-10-02T23:45:08.657Z,19.90
2022-10-02T23:47:47.959Z,19.90
2022-10-02T23:50:23.648Z,19.90
2022-10-02T23:53:28.250Z,19.90
2022-10-02T23:56:13.201Z,19.90
2022-10-02T23:58:58.798Z,19.90
